Time;durP1;ratioP1;P1;durP2;ratioP2;P2;SDS_P1;SDS_P2;PMS_P1;PMS_P2;Temp;Humidity;BMP_temperature;BMP_pressure;BME280_temperature;BME280_humidity;BME280_pressure;Samples;Min_cycle;Max_cycle;Signal;HPM_P1;HPM_P2
2022/06/05 00:00:09;;;;;;;7.93;6.43;;;;;;;21.33;100.00;63084.84;5091502;28;20199;-73
2022/06/05 00:02:54;;;;;;;11.40;6.40;;;;;;;21.32;100.00;63081.16;5091515;28;20203;-72
2022/06/05 00:05:27;;;;;;;9.57;6.33;;;;;;;21.27;100.00;63080.94;5095224;28;20211;-73
2022/06/05 00:08:06;;;;;;;10.03;6.37;;;;;;;21.31;100.00;63082.69;5095735;28;20256;-72
2022/06/05 00:10:39;;;;;;;9.47;6.63;;;;;;;20.66;100.00;63010.81;5095667;28;20203;-75
2022/06/05 00:13:13;;;;;;;9.70;5.93;;;;;;;21.22;100.00;63072.91;5095372;28;20192;-73
2022/06/05 00:15:41;;;;;;;9.27;6.40;;;;;;;21.39;100.00;63093.94;5095565;28;20202;-74
2022/06/05 00:18:11;;;;;;;11.23;5.73;;;;;;;21.46;100.00;63096.31;5094293;28;20208;-73
2022/06/05 00:20:41;;;;;;;10.37;5.87;;;;;;;21.23;100.00;63071.41;5094857;28;20218;-72
2022/06/05 00:23:08;;;;;;;11.00;6.67;;;;;;;21.38;100.00;63090.25;5095608;28;20723;-75
2022/06/05 00:25:44;;;;;;;12.10;6.60;;;;;;;21.43;100.00;63095.66;5095411;28;20195;-74
2022/06/05 00:28:19;;;;;;;7.97;5.80;;;;;;;21.45;100.00;63098.34;5095323;28;20199;-72
2022/06/05 00:30:58;;;;;;;10.03;6.00;;;;;;;21.46;100.00;63099.44;5095208;28;20199;-74
2022/06/05 00:33:35;;;;;;;13.83;6.40;;;;;;;21.41;100.00;63096.09;5095043;28;20234;-74
2022/06/05 00:36:10;;;;;;;8.90;6.57;;;;;;;21.39;100.00;63091.34;5095258;28;20207;-71
2022/06/05 00:38:45;;;;;;;11.63;6.73;;;;;;;21.44;100.00;63096.72;5094920;28;20294;-73
2022/06/05 00:41:35;;;;;;;10.33;7.60;;;;;;;21.43;100.00;63093.06;5094994;28;20223;-73
2022/06/05 00:44:05;;;;;;;14.03;7.33;;;;;;;21.23;100.00;63071.94;5094930;28;20260;-73
2022/06/05 00:46:34;;;;;;;12.17;7.00;;;;;;;21.25;100.00;63074.13;5094864;28;20242;-73
2022/06/05 00:49:04;;;;;;;15.30;7.17;;;;;;;21.24;100.00;63077.69;5095114;28;20200;-73
2022/06/05 00:51:32;;;;;;;11.57;7.50;;;;;;;21.40;100.00;63090.34;5095756;28;20199;-74
2022/06/05 00:53:59;;;;;;;16.97;6.77;;;;;;;21.34;100.00;63083.88;5097540;28;20196;-73
2022/06/05 00:56:26;;;;;;;13.00;7.03;;;;;;;21.14;100.00;63059.09;5095751;28;20638;-74
2022/06/05 00:58:53;;;;;;;11.80;7.80;;;;;;;21.28;100.00;63076.81;5094686;28;20203;-74
2022/06/05 01:01:21;;;;;;;8.90;7.27;;;;;;;21.09;100.00;63056.28;5094789;28;20282;-74
2022/06/05 01:03:48;;;;;;;10.47;7.60;;;;;;;21.12;100.00;63064.69;5095078;28;20200;-72
2022/06/05 01:06:17;;;;;;;12.57;7.27;;;;;;;21.16;100.00;63063.84;5094573;28;20234;-73
2022/06/05 01:08:43;;;;;;;13.23;7.30;;;;;;;21.16;100.00;63063.84;5094903;28;20199;-74
2022/06/05 01:11:18;;;;;;;10.90;6.77;;;;;;;21.32;100.00;63081.16;5094623;28;20535;-76
2022/06/05 01:13:57;;;;;;;12.70;8.00;;;;;;;21.25;100.00;63076.19;5094418;28;20206;-73
2022/06/05 01:16:28;;;;;;;13.63;6.53;;;;;;;21.18;100.00;63069.13;5091988;28;20213;-74
2022/06/05 01:19:04;;;;;;;12.57;7.23;;;;;;;21.12;100.00;63062.09;5094364;28;20200;-73
2022/06/05 01:22:05;;;;;;;13.87;7.43;;;;;;;21.15;100.00;63067.94;5093998;28;20199;-73
2022/06/05 01:24:48;;;;;;;10.03;6.53;;;;;;;21.12;100.00;63059.50;5093985;28;20202;-75
2022/06/05 01:27:20;;;;;;;11.07;6.90;;;;;;;21.07;100.00;63054.63;5093918;28;20721;-74
2022/06/05 01:29:51;;;;;;;9.93;6.93;;;;;;;21.06;100.00;63053.00;5094202;28;20207;-73
2022/06/05 01:32:27;;;;;;;10.90;7.70;;;;;;;21.04;100.00;63054.00;5094258;28;20231;-75
2022/06/05 01:34:58;;;;;;;16.23;7.40;;;;;;;21.01;100.00;63051.28;5093970;28;20253;-73
2022/06/05 01:37:30;;;;;;;14.30;7.50;;;;;;;20.98;100.00;63050.63;5093373;28;20311;-74
2022/06/05 01:40:03;;;;;;;11.53;7.13;;;;;;;20.93;100.00;63045.19;5093521;28;20276;-73
2022/06/05 01:42:37;;;;;;;11.57;6.67;;;;;;;21.00;100.00;63050.19;5093938;28;20210;-75
2022/06/05 01:45:09;;;;;;;11.10;7.33;;;;;;;20.74;100.00;63021.50;5093620;28;20253;-73
2022/06/05 01:47:41;;;;;;;14.93;7.33;;;;;;;20.84;100.00;63029.75;5061244;28;20224;-73
2022/06/05 01:50:14;;;;;;;13.27;7.27;;;;;;;20.92;100.00;63044.13;5093263;28;20588;-73
2022/06/05 01:52:50;;;;;;;9.63;6.67;;;;;;;21.03;100.00;63053.44;5093905;28;20320;-73
2022/06/05 01:55:23;;;;;;;10.67;7.17;;;;;;;20.95;100.00;63044.75;5093949;28;20199;-75
2022/06/05 01:57:55;;;;;;;13.50;7.20;;;;;;;20.77;100.00;63027.88;5093635;28;20207;-73
2022/06/05 02:00:23;;;;;;;10.07;7.10;;;;;;;20.74;100.00;63021.50;5093437;28;20233;-73
2022/06/05 02:02:57;;;;;;;14.60;7.23;;;;;;;20.35;100.00;62977.28;5093143;28;20200;-75
2022/06/05 02:05:28;;;;;;;13.87;7.03;;;;;;;20.73;100.00;63015.78;5093352;28;20200;-73
2022/06/05 02:07:59;;;;;;;13.30;7.23;;;;;;;20.77;100.00;63022.16;5092911;28;20231;-74
2022/06/05 02:10:31;;;;;;;11.70;7.00;;;;;;;20.70;100.00;63014.59;5093051;28;20661;-72
2022/06/05 02:13:01;;;;;;;9.93;7.17;;;;;;;20.62;100.00;63006.47;5092981;28;20670;-74
2022/06/05 02:15:29;;;;;;;12.30;7.40;;;;;;;20.57;100.00;63005.69;5074930;28;20253;-73
2022/06/05 02:17:56;;;;;;;11.77;7.10;;;;;;;20.43;100.00;62985.94;5092262;28;20666;-73
2022/06/05 02:20:24;;;;;;;10.13;7.43;;;;;;;20.38;100.00;62980.53;5093133;28;20207;-75
2022/06/05 02:22:52;;;;;;;10.87;6.90;;;;;;;20.53;100.00;62996.19;5093077;28;20199;-74
2022/06/05 02:25:21;;;;;;;17.93;7.20;;;;;;;20.18;100.00;62961.47;5074795;28;20208;-73
2022/06/05 02:27:48;;;;;;;15.13;6.93;;;;;;;20.50;100.00;62998.69;5092273;28;20231;-73
2022/06/05 02:30:17;;;;;;;9.07;6.70;;;;;;;20.21;100.00;62964.72;5092649;28;20231;-73
2022/06/05 02:33:10;;;;;;;16.00;7.73;;;;;;;20.33;100.00;62977.69;5092668;28;20292;-74
2022/06/05 02:35:46;;;;;;;8.17;7.03;;;;;;;20.22;100.00;62973.56;5078657;28;20196;-73
2022/06/05 02:38:24;;;;;;;11.83;7.33;;;;;;;20.36;100.00;62977.81;5092624;28;20219;-73
2022/06/05 02:41:00;;;;;;;11.87;7.80;;;;;;;20.19;100.00;62965.69;5092864;28;20215;-74
2022/06/05 02:43:34;;;;;;;8.17;7.17;;;;;;;20.30;100.00;62971.88;5092695;28;20629;-74
2022/06/05 02:46:11;;;;;;;13.30;7.40;;;;;;;20.33;100.00;62979.75;5092635;28;20207;-73
2022/06/05 02:48:45;;;;;;;11.57;7.23;;;;;;;20.24;100.00;62965.38;5092284;28;20713;-73
2022/06/05 02:51:17;;;;;;;13.83;7.47;;;;;;;20.19;100.00;62959.97;5092313;28;20199;-73
2022/06/05 02:53:49;;;;;;;11.37;7.17;;;;;;;20.18;100.00;62958.88;5092244;28;20207;-73
2022/06/05 02:56:19;;;;;;;13.83;7.50;;;;;;;20.28;100.00;62969.72;5092061;28;20203;-73
2022/06/05 02:58:48;;;;;;;12.77;7.63;;;;;;;20.20;100.00;62964.19;5092465;28;20199;-73
2022/06/05 03:04:02;;;;;;;9.23;7.60;;;;;;;19.99;100.00;62943.50;5081229;28;20202;-73
2022/06/05 03:06:31;;;;;;;9.80;6.97;;;;;;;19.89;100.00;62933.25;5091809;28;20210;-73
2022/06/05 03:09:00;;;;;;;10.43;6.93;;;;;;;20.09;100.00;62949.16;5092284;28;20198;-74
2022/06/05 03:11:29;;;;;;;12.43;7.53;;;;;;;19.97;100.00;62936.16;5092252;28;20199;-74
2022/06/05 03:13:57;;;;;;;14.63;7.83;;;;;;;20.09;100.00;62949.16;5092240;28;20195;-75
2022/06/05 03:16:28;;;;;;;11.80;7.33;;;;;;;19.58;100.00;62899.72;5091345;28;20207;-75
2022/06/05 03:18:55;;;;;;;18.33;7.60;;;;;;;20.08;100.00;62950.66;5091745;28;20200;-73
2022/06/05 03:21:23;;;;;;;10.53;7.30;;;;;;;20.09;100.00;62946.56;5091664;28;20674;-74
2022/06/05 03:23:50;;;;;;;15.93;8.70;;;;;;;20.15;100.00;62960.81;5091206;28;20203;-74
2022/06/05 03:26:18;;;;;;;10.23;7.27;;;;;;;20.13;100.00;62953.47;5092065;28;20212;-74
2022/06/05 03:28:46;;;;;;;9.43;7.13;;;;;;;20.04;100.00;62946.34;5091589;28;20227;-73
2022/06/05 03:31:12;;;;;;;10.03;7.73;;;;;;;19.89;100.00;62927.53;5091614;28;20787;-73
2022/06/05 03:33:41;;;;;;;14.87;7.83;;;;;;;19.64;100.00;62900.50;5091828;28;20612;-74
2022/06/05 03:36:10;;;;;;;14.87;8.13;;;;;;;20.09;100.00;62949.16;5091835;28;20199;-72
2022/06/05 03:38:38;;;;;;;19.77;8.77;;;;;;;20.09;100.00;62954.88;5090853;28;20665;-72
2022/06/05 03:41:05;;;;;;;14.30;8.53;;;;;;;19.79;100.00;62919.31;5091717;28;20227;-73
2022/06/05 03:43:32;;;;;;;17.57;8.93;;;;;;;20.02;100.00;62941.59;5091342;28;20223;-73
2022/06/05 03:46:04;;;;;;;17.40;8.77;;;;;;;19.76;100.00;62916.06;5091612;28;20203;-72
2022/06/05 03:48:31;;;;;;;11.23;7.87;;;;;;;20.20;100.00;62959.00;5091416;28;20774;-73
2022/06/05 03:51:00;;;;;;;12.80;7.73;;;;;;;20.25;100.00;62966.47;5091429;28;20199;-73
2022/06/05 03:53:28;;;;;;;15.43;7.67;;;;;;;20.38;100.00;62979.97;5091286;28;20195;-73
2022/06/05 03:55:55;;;;;;;13.67;8.27;;;;;;;20.27;100.00;62973.81;5091853;28;20200;-75
2022/06/05 03:58:22;;;;;;;11.90;9.17;;;;;;;20.29;100.00;62975.97;5091388;28;20238;-74
2022/06/05 04:00:49;;;;;;;27.53;11.07;;;;;;;20.50;100.00;62995.56;5091728;28;20662;-74
2022/06/05 04:03:17;;;;;;;18.73;10.53;;;;;;;20.57;100.00;63000.53;5090810;28;20204;-72
2022/06/05 04:05:46;;;;;;;15.80;9.97;;;;;;;20.19;100.00;62963.09;5091501;28;20227;-74
2022/06/05 04:08:16;;;;;;;14.70;9.33;;;;;;;20.54;100.00;63003.00;5091451;28;20710;-74
2022/06/05 04:10:45;;;;;;;11.37;8.37;;;;;;;20.78;100.00;63023.25;5091180;28;20212;-73
2022/06/05 04:13:13;;;;;;;14.53;8.17;;;;;;;21.00;100.00;63047.59;5091188;28;20218;-74
2022/06/05 04:15:41;;;;;;;12.83;8.00;;;;;;;20.99;100.00;63051.13;5073049;28;20211;-74
2022/06/05 04:18:09;;;;;;;14.63;7.70;;;;;;;21.12;100.00;63059.50;5090130;28;20204;-74
2022/06/05 04:20:39;;;;;;;16.30;8.37;;;;;;;21.08;100.00;63050.00;5091338;28;20210;-74
2022/06/05 04:23:08;;;;;;;14.87;7.90;;;;;;;21.20;100.00;63071.31;5091119;28;20650;-72
2022/06/05 04:25:37;;;;;;;25.13;9.43;;;;;;;21.27;100.00;63080.94;5091461;28;20211;-74
2022/06/05 04:28:06;;;;;;;15.97;10.47;;;;;;;21.27;100.00;63075.75;5091071;28;20306;-74
2022/06/05 04:30:37;;;;;;;20.90;10.30;;;;;;;21.20;100.00;63065.56;5092271;28;20303;-75
2022/06/05 04:33:04;;;;;;;12.63;8.93;;;;;;;21.28;100.00;63076.81;5093972;28;20313;-73
2022/06/05 04:35:32;;;;;;;15.03;8.80;;;;;;;20.72;100.00;63017.31;5091138;28;20261;-73
2022/06/05 04:37:59;;;;;;;19.57;9.23;;;;;;;21.06;100.00;63055.59;5091359;28;20200;-74
2022/06/05 04:40:27;;;;;;;15.67;9.83;;;;;;;20.70;100.00;63017.72;5090859;28;20276;-75
2022/06/05 04:42:55;;;;;;;12.23;9.63;;;;;;;21.39;100.00;63091.34;5091086;28;20207;-74
2022/06/05 04:45:23;;;;;;;14.23;9.50;;;;;;;21.51;100.00;63099.13;5090622;28;20203;-73
2022/06/05 04:47:51;;;;;;;12.97;9.30;;;;;;;21.88;100.00;63144.41;5091320;28;20231;-74
2022/06/05 04:50:18;;;;;;;13.03;9.57;;;;;;;21.95;100.00;63148.84;5093229;28;20207;-73
2022/06/05 04:52:46;;;;;;;15.73;10.10;;;;;;;22.30;100.00;63187.28;5094665;28;20207;-75
2022/06/05 04:55:13;;;;;;;15.90;10.13;;;;;;;22.36;100.00;63195.84;5094618;28;20211;-74
2022/06/05 04:57:41;;;;;;;14.03;9.70;;;;;;;22.31;100.00;63193.03;5094483;28;20200;-74
2022/06/05 05:00:10;;;;;;;19.70;9.10;;;;;;;22.54;100.00;63212.75;5094564;28;20658;-74
2022/06/05 05:02:37;;;;;;;16.83;9.20;;;;;;;22.66;100.00;63231.50;5094335;28;20199;-72
2022/06/05 05:05:06;;;;;;;24.27;9.60;;;;;;;22.76;100.00;63239.19;5094618;28;20242;-72
2022/06/05 05:07:33;;;;;;;17.00;9.10;;;;;;;22.88;100.00;63249.59;5094304;28;20247;-73
2022/06/05 05:10:01;;;;;;;18.50;9.57;;;;;;;23.06;100.00;63268.59;5094520;28;20740;-74
2022/06/05 05:12:28;;;;;;;15.07;9.20;;;;;;;23.13;100.00;63278.75;5094520;28;20627;-73
2022/06/05 05:14:55;;;;;;;11.90;8.30;;;;;;;23.09;100.00;63274.44;5094605;28;20200;-75
2022/06/05 05:17:25;;;;;;;13.90;9.33;;;;;;;23.33;100.00;63298.41;5092907;28;20617;-74
2022/06/05 05:19:52;;;;;;;16.57;9.90;;;;;;;23.59;100.00;63326.06;5092174;28;20214;-73
2022/06/05 05:22:19;;;;;;;14.53;8.90;;;;;;;23.44;100.00;63309.81;5082422;28;20290;-74
2022/06/05 05:24:48;;;;;;;15.80;9.20;;;;;;;23.67;100.00;63334.75;5094012;28;20244;-75
2022/06/05 05:27:15;;;;;;;13.27;9.30;;;;;;;23.36;100.00;63301.13;5094680;28;20604;-73
2022/06/05 05:29:42;;;;;;;18.00;8.70;;;;;;;23.40;100.00;63305.47;5093966;28;20214;-73
2022/06/05 05:32:10;;;;;;;14.63;9.20;;;;;;;23.46;100.00;63317.19;5093802;28;20231;-74
2022/06/05 05:34:39;;;;;;;15.47;8.73;;;;;;;23.28;100.00;63292.44;5093803;28;20257;-73
2022/06/05 05:37:08;;;;;;;11.27;8.23;;;;;;;23.65;100.00;63332.56;5093810;28;20264;-74
2022/06/05 05:42:18;;;;;;;10.37;8.33;;;;;;;24.44;100.00;63417.75;5093774;28;20282;-75
2022/06/05 05:44:48;;;;;;;13.53;8.90;;;;;;;24.88;100.00;63465.00;5093712;28;20709;-73
2022/06/05 05:47:18;;;;;;;18.50;9.07;;;;;;;25.06;100.00;63481.94;5093231;28;20204;-74
2022/06/05 05:49:46;;;;;;;10.10;7.93;;;;;;;25.27;100.00;63499.53;5093718;28;20583;-73
2022/06/05 05:52:14;;;;;;;13.27;8.67;;;;;;;25.29;100.00;63508.97;5093935;28;20210;-75
2022/06/05 05:54:41;;;;;;;12.00;7.73;;;;;;;25.51;100.00;63536.06;5093323;28;20196;-73
2022/06/05 05:57:09;;;;;;;12.40;7.90;;;;;;;25.52;100.00;63537.13;5093390;28;20203;-74
2022/06/05 05:59:37;;;;;;;12.13;8.40;;;;;;;25.55;100.00;63537.78;5093198;28;20708;-74
2022/06/05 06:02:06;;;;;;;11.07;7.87;;;;;;;25.72;100.00;63555.72;5092563;28;20207;-73
2022/06/05 06:04:33;;;;;;;11.67;7.83;;;;;;;25.28;100.00;63505.28;5093067;28;20199;-74
2022/06/05 06:07:01;;;;;;;13.37;7.80;;;;;;;26.04;100.00;63590.47;5093261;28;20207;-75
2022/06/05 06:09:33;;;;;;;12.17;7.87;;;;;;;26.05;100.00;63591.03;5093395;28;20234;-72
2022/06/05 06:12:00;;;;;;;17.57;8.70;;;;;;;26.14;100.00;63600.84;5093401;28;20207;-74
2022/06/05 06:14:27;;;;;;;13.73;7.90;;;;;;;26.27;100.00;63617.56;5093223;28;20599;-74
2022/06/05 06:16:55;;;;;;;13.77;8.03;;;;;;;26.68;100.00;63659.56;5091950;28;20196;-74
2022/06/05 06:19:22;;;;;;;12.97;7.30;;;;;;;26.84;100.00;63676.97;5093268;28;20199;-74
2022/06/05 06:21:50;;;;;;;15.17;7.97;;;;;;;26.86;100.00;63679.16;5093079;28;20627;-73
2022/06/05 06:24:18;;;;;;;9.40;7.47;;;;;;;27.14;100.00;63709.06;5093100;28;20294;-73
2022/06/05 06:26:45;;;;;;;12.40;7.53;;;;;;;27.01;100.00;63695.44;5093323;28;20208;-74
2022/06/05 06:29:13;;;;;;;14.83;7.80;;;;;;;27.41;100.00;63736.38;5092602;28;20289;-72
2022/06/05 06:31:42;;;;;;;11.63;7.33;;;;;;;27.56;100.00;63754.78;5092010;28;20249;-72
2022/06/05 06:34:11;;;;;;;15.53;8.00;;;;;;;27.32;100.00;63729.19;5092721;28;20198;-74
2022/06/05 06:36:39;;;;;;;11.37;7.70;;;;;;;28.08;100.00;63810.84;5092467;28;20208;-74
2022/06/05 06:39:06;;;;;;;13.40;7.80;;;;;;;28.22;100.00;63826.09;5074530;28;20291;-75
2022/06/05 06:41:35;;;;;;;14.47;7.93;;;;;;;28.13;100.00;63813.66;5092164;28;20223;-73
2022/06/05 06:44:03;;;;;;;14.33;7.50;;;;;;;28.40;100.00;63845.69;5092249;28;20210;-74
2022/06/05 06:46:32;;;;;;;17.40;8.53;;;;;;;28.51;100.00;63857.66;5074102;28;20663;-73
2022/06/05 06:49:01;;;;;;;14.53;8.63;;;;;;;28.29;100.00;63836.34;5091984;28;20599;-74
2022/06/05 06:51:28;;;;;;;16.37;7.80;;;;;;;28.40;100.00;63843.06;5092011;28;20200;-74
2022/06/05 06:53:55;;;;;;;12.27;7.73;;;;;;;28.62;100.00;63867.03;5092114;28;20192;-74
2022/06/05 06:56:24;;;;;;;14.00;7.90;;;;;;;28.73;100.00;63881.66;5092171;28;20211;-74
2022/06/05 06:58:53;;;;;;;15.33;8.10;;;;;;;28.91;100.00;63900.72;5091984;28;20590;-74
2022/06/05 07:01:20;;;;;;;12.60;7.90;;;;;;;28.84;100.00;63895.69;5091898;28;20201;-74
2022/06/05 07:03:48;;;;;;;10.97;8.20;;;;;;;28.75;100.00;63883.84;5091528;28;20261;-74
2022/06/05 07:06:17;;;;;;;10.83;7.10;;;;;;;28.83;100.00;63889.38;5092107;28;20199;-75
2022/06/05 07:08:45;;;;;;;16.83;7.50;;;;;;;28.86;100.00;63895.81;5091780;28;20779;-73
2022/06/05 07:11:17;;;;;;;16.77;8.27;;;;;;;28.94;100.00;63903.97;5073621;28;20711;-76
2022/06/05 07:13:45;;;;;;;14.33;8.33;;;;;;;28.62;100.00;63869.66;5093195;28;20212;-73
2022/06/05 07:16:14;;;;;;;12.83;7.67;;;;;;;28.48;100.00;63854.41;5091835;28;20208;-74
2022/06/05 07:18:51;;;;;;;14.27;7.87;;;;;;;28.57;100.00;63861.06;5091303;28;20231;-74
2022/06/05 07:21:21;;;;;;;11.43;7.03;;;;;;;28.72;100.00;63885.81;5091497;28;20195;-74
2022/06/05 07:23:49;;;;;;;12.93;7.33;;;;;;;28.43;100.00;63846.34;5091535;28;20278;-73
2022/06/05 07:26:19;;;;;;;13.10;7.50;;;;;;;28.50;100.00;63850.78;5091847;28;20195;-72
2022/06/05 07:28:47;;;;;;;14.80;7.87;;;;;;;28.61;100.00;63868.59;5091473;28;20654;-73
2022/06/05 07:31:16;;;;;;;13.13;7.67;;;;;;;28.89;100.00;63899.09;5091463;28;20211;-73
2022/06/05 07:33:44;;;;;;;12.43;7.97;;;;;;;28.99;100.00;63909.97;5091131;28;20258;-75
2022/06/05 07:36:14;;;;;;;8.00;7.17;;;;;;;28.99;100.00;63904.72;5091135;28;20211;-72
2022/06/05 07:38:41;;;;;;;11.37;6.63;;;;;;;28.91;100.00;63901.25;5091065;28;20621;-73
2022/06/05 07:41:16;;;;;;;12.57;7.13;;;;;;;28.54;100.00;63863.00;5090989;28;20277;-74
2022/06/05 07:43:45;;;;;;;15.53;7.00;;;;;;;29.20;100.00;63938.13;5090747;28;20271;-74
2022/06/05 07:46:20;;;;;;;11.20;7.20;;;;;;;29.28;100.00;63943.13;5091119;28;20204;-75
2022/06/05 07:48:47;;;;;;;9.93;7.10;;;;;;;29.64;100.00;63977.13;5091386;28;20239;-74
2022/06/05 07:56:48;;;;;;;8.33;6.90;;;;;;;29.76;100.00;63992.84;5091320;28;20683;-76
2022/06/05 07:59:15;;;;;;;11.23;6.97;;;;;;;29.48;100.00;63964.94;5090898;28;20702;-75
2022/06/05 08:01:44;;;;;;;7.47;6.60;;;;;;;29.02;100.00;63913.22;5091151;28;20253;-74
2022/06/05 08:04:12;;;;;;;8.47;6.37;;;;;;;28.87;100.00;63898.97;5091037;28;20210;-75
2022/06/05 08:06:40;;;;;;;10.00;6.70;;;;;;;29.05;100.00;63915.97;5090640;28;20200;-75
2022/06/05 08:09:09;;;;;;;10.67;6.77;;;;;;;29.09;100.00;63920.88;5091012;28;20234;-75
2022/06/05 08:11:37;;;;;;;9.60;6.67;;;;;;;29.11;100.00;63928.31;5091018;28;20291;-74
2022/06/05 08:14:05;;;;;;;14.40;6.70;;;;;;;29.35;100.00;63953.38;5091016;28;20234;-74
2022/06/05 08:16:34;;;;;;;11.60;6.10;;;;;;;29.80;100.00;63997.22;5089907;28;20645;-75
2022/06/05 08:19:03;;;;;;;9.60;5.60;;;;;;;30.16;100.00;64041.16;5091090;28;20210;-74
2022/06/05 08:21:31;;;;;;;12.37;6.30;;;;;;;30.45;100.00;64068.09;5090930;28;20713;-74
2022/06/05 08:24:00;;;;;;;13.40;10.17;;;;;;;30.31;100.00;64052.28;5090898;28;20215;-74
2022/06/05 08:26:27;;;;;;;12.63;5.60;;;;;;;30.06;100.00;64027.63;5094691;28;20205;-74
2022/06/05 08:28:53;;;;;;;8.77;5.53;;;;;;;29.51;100.00;63970.81;5094937;28;20225;-73
2022/06/05 08:31:21;;;;;;;8.70;5.00;;;;;;;30.00;100.00;64019.00;5094723;28;20210;-73
2022/06/05 08:33:49;;;;;;;9.77;5.33;;;;;;;30.12;100.00;64032.09;5094131;28;20241;-74
2022/06/05 08:36:17;;;;;;;8.20;5.73;;;;;;;30.43;100.00;64065.38;5094736;28;20659;-74
2022/06/05 08:41:42;;;;;;;14.50;5.60;;;;;;;30.15;100.00;64040.63;5080647;28;20814;-73
2022/06/05 08:44:24;;;;;;;6.97;4.90;;;;;;;30.12;100.00;64026.84;5094780;28;20664;-73
2022/06/05 08:46:56;;;;;;;9.33;5.33;;;;;;;30.49;100.00;64071.91;5094485;28;20263;-74
2022/06/05 08:49:37;;;;;;;6.77;5.10;;;;;;;30.49;100.00;64072.47;5094476;28;20232;-74
2022/06/05 08:52:27;;;;;;;11.23;5.30;;;;;;;31.03;100.00;64128.22;5094736;28;20284;-73
2022/06/05 08:55:00;;;;;;;10.63;5.50;;;;;;;30.89;100.00;64115.59;5094632;28;20233;-73
2022/06/05 08:57:34;;;;;;;9.87;5.47;;;;;;;31.07;100.00;64134.69;5094326;28;20215;-75
2022/06/05 09:00:08;;;;;;;7.80;5.13;;;;;;;31.01;100.00;64128.16;5094245;28;20259;-76
2022/06/05 09:02:43;;;;;;;9.03;5.63;;;;;;;31.24;100.00;64153.22;5094254;28;20206;-73
2022/06/05 09:05:19;;;;;;;11.70;5.17;;;;;;;31.17;100.00;64146.13;5093933;28;20681;-76
2022/06/05 09:07:52;;;;;;;12.47;5.70;;;;;;;30.84;100.00;64110.13;5094052;28;20286;-73
2022/06/05 09:10:31;;;;;;;5.57;4.13;;;;;;;30.94;100.00;64117.88;5094074;28;20647;-73
2022/06/05 09:13:02;;;;;;;9.30;4.80;;;;;;;30.68;100.00;64093.22;5094715;28;20631;-73
2022/06/05 09:15:36;;;;;;;7.50;4.60;;;;;;;30.93;100.00;64114.16;5094123;28;20198;-74
2022/06/05 09:18:14;;;;;;;5.20;4.70;;;;;;;31.05;100.00;64137.78;5074668;28;20238;-74
2022/06/05 09:20:49;;;;;;;6.43;4.20;;;;;;;30.95;100.00;64121.59;5093965;28;20268;-74
2022/06/05 09:23:23;;;;;;;7.97;4.63;;;;;;;31.51;100.00;64180.09;5093901;28;20202;-74
2022/06/05 09:25:58;;;;;;;10.10;4.70;;;;;;;30.89;100.00;64109.78;5094179;28;20210;-74
2022/06/05 09:29:10;;;;;;;7.37;4.60;;;;;;;31.05;100.00;64132.50;5093680;28;20202;-73
2022/06/05 09:31:58;;;;;;;6.30;4.23;;;;;;;31.01;100.00;64125.50;5003205;28;20220;-74
2022/06/05 09:34:30;;;;;;;6.10;4.47;;;;;;;31.36;100.00;64166.34;5093726;28;20287;-75
2022/06/05 09:37:02;;;;;;;6.33;3.93;;;;;;;31.62;100.00;64195.28;5092469;28;20204;-74
2022/06/05 09:39:47;;;;;;;12.83;4.10;;;;;;;31.50;100.00;64181.63;5079505;28;20199;-75
2022/06/05 09:42:30;;;;;;;10.00;3.60;;;;;;;31.31;100.00;64155.63;5093760;28;20264;-74
2022/06/05 09:45:17;;;;;;;16.23;4.17;;;;;;;31.16;100.00;64144.50;5093628;28;20664;-73
2022/06/05 09:47:58;;;;;;;9.37;5.03;;;;;;;31.42;100.00;64167.63;5093292;28;20200;-74
2022/06/05 09:50:28;;;;;;;11.90;6.77;;;;;;;31.81;100.00;64212.88;5093482;28;20624;-74
2022/06/05 09:52:55;;;;;;;6.27;4.13;;;;;;;32.25;100.00;64263.56;5093135;28;20257;-74
2022/06/05 09:55:39;;;;;;;10.23;6.00;;;;;;;32.49;100.00;64286.63;5093084;28;20203;-74
2022/06/05 09:58:27;;;;;;;13.57;4.43;;;;;;;32.76;100.00;64318.75;5093108;28;20192;-73
2022/06/05 10:00:56;;;;;;;10.97;6.33;;;;;;;32.15;100.00;64250.00;5093220;28;20208;-73
2022/06/05 10:03:29;;;;;;;11.63;3.70;;;;;;;32.63;100.00;64298.72;5093151;28;20230;-74
2022/06/05 10:06:17;;;;;;;4.30;3.87;;;;;;;32.56;100.00;64296.91;5093029;28;20673;-74
2022/06/05 10:08:47;;;;;;;4.50;3.60;;;;;;;33.00;100.00;64339.19;5082058;28;20243;-73
2022/06/05 10:11:28;;;;;;;11.20;5.17;;;;;;;32.35;100.00;64279.78;5092923;28;20314;-75
2022/06/05 10:14:05;;;;;;;8.90;4.33;;;;;;;32.66;100.00;64309.94;5092839;28;20686;-75
2022/06/05 10:16:38;;;;;;;5.70;3.80;;;;;;;32.52;100.00;64294.63;5091869;28;20200;-74
2022/06/05 10:19:24;;;;;;;6.70;4.20;;;;;;;33.14;100.00;64359.78;5093465;28;20206;-74
2022/06/05 10:21:58;;;;;;;11.17;4.60;;;;;;;33.25;100.00;64371.78;5092984;28;20198;-73
2022/06/05 10:24:39;;;;;;;10.30;4.23;;;;;;;33.28;100.00;64375.09;5093345;28;20205;-73
2022/06/05 10:27:08;;;;;;;8.63;4.47;;;;;;;33.24;100.00;64370.72;5093606;28;20210;-74
2022/06/05 10:29:42;;;;;;;14.27;4.17;;;;;;;33.42;100.00;64390.41;5093161;28;20238;-74
2022/06/05 10:32:28;;;;;;;6.93;3.90;;;;;;;33.70;100.00;64417.84;5080978;28;20203;-74
2022/06/05 10:35:03;;;;;;;8.07;4.23;;;;;;;34.32;100.00;64485.69;5092986;28;20234;-73
2022/06/05 10:37:38;;;;;;;9.90;4.70;;;;;;;34.72;100.00;64532.13;5092571;28;20334;-75
2022/06/05 10:40:14;;;;;;;5.13;4.00;;;;;;;34.28;100.00;64480.75;5093279;28;20254;-75
2022/06/05 10:42:53;;;;;;;9.13;4.63;;;;;;;34.77;100.00;64531.75;5092499;28;20678;-73
2022/06/05 10:45:49;;;;;;;10.37;4.40;;;;;;;34.69;100.00;64530.94;5092887;28;20208;-74
2022/06/05 10:48:27;;;;;;;6.63;3.50;;;;;;;33.87;100.00;64439.63;5091446;28;20632;-73
2022/06/05 10:50:58;;;;;;;6.30;3.20;;;;;;;34.11;100.00;64465.34;5092693;28;20248;-74
2022/06/05 10:53:36;;;;;;;7.60;4.00;;;;;;;34.29;100.00;64481.84;5092240;28;20228;-74
2022/06/05 10:56:24;;;;;;;6.07;3.73;;;;;;;34.90;100.00;64548.63;5092112;28;20662;-74
2022/06/05 10:59:00;;;;;;;6.07;4.00;;;;;;;34.87;100.00;64548.00;5091773;28;20258;-74
2022/06/05 11:01:37;;;;;;;7.20;3.97;;;;;;;34.06;100.00;64457.22;5092193;28;20214;-75
2022/06/05 11:04:15;;;;;;;8.47;3.73;;;;;;;34.56;100.00;64514.59;5092049;28;20694;-73
2022/06/05 11:06:50;;;;;;;7.50;3.70;;;;;;;34.30;100.00;64486.13;5092116;28;20293;-73
2022/06/05 11:09:28;;;;;;;8.27;3.83;;;;;;;34.35;100.00;64491.06;5092642;28;20678;-75
2022/06/05 11:15:03;;;;;;;9.07;3.93;;;;;;;34.77;100.00;64534.41;5092481;28;20206;-74
2022/06/05 11:17:41;;;;;;;5.97;3.53;;;;;;;35.10;100.00;64578.47;5090994;28;20201;-74
2022/06/05 11:20:13;;;;;;;5.20;3.60;;;;;;;35.13;100.00;64575.94;5073913;28;20244;-73
2022/06/05 11:22:48;;;;;;;5.57;3.80;;;;;;;35.36;99.30;64601.66;5091565;28;20647;-76
2022/06/05 11:25:25;;;;;;;7.93;6.23;;;;;;;35.75;94.48;64643.28;5091570;28;20208;-74
2022/06/05 11:28:01;;;;;;;9.33;4.23;;;;;;;35.71;93.71;64638.91;5091752;28;20219;-74
2022/06/05 11:31:01;;;;;;;4.57;3.33;;;;;;;35.72;85.97;64640.00;5071541;28;20231;-75
2022/06/05 11:33:32;;;;;;;6.10;3.40;;;;;;;35.35;78.61;64594.72;5086916;28;20233;-74
2022/06/05 11:36:15;;;;;;;5.90;3.00;;;;;;;35.03;82.08;64562.31;5091912;28;20211;-75
2022/06/05 11:38:52;;;;;;;5.57;3.50;;;;;;;34.56;92.38;64519.91;5091296;28;20202;-74
2022/06/05 11:41:28;;;;;;;5.93;3.40;;;;;;;35.00;87.46;64561.69;5091557;28;20231;-74
2022/06/05 11:44:18;;;;;;;8.10;3.10;;;;;;;35.08;83.70;64568.34;5090964;28;20204;-74
2022/06/05 11:46:54;;;;;;;5.40;2.83;;;;;;;35.85;77.08;64654.25;5091767;28;20544;-75
2022/06/05 11:49:35;;;;;;;8.50;4.03;;;;;;;35.54;82.69;64621.38;5077832;28;20201;-75
2022/06/05 11:52:13;;;;;;;5.23;3.20;;;;;;;35.89;77.98;64659.19;5091400;28;20215;-75
2022/06/05 11:54:51;;;;;;;4.50;3.37;;;;;;;36.31;67.03;64704.66;5091061;28;20205;-75
2022/06/05 11:57:25;;;;;;;4.40;3.23;;;;;;;36.66;67.31;64743.06;5091379;28;20218;-75